Mexican Hat, Utah
Current Conditions -  °F | °C
As of 3:35 PM on Monday 26 Jan 2015 (Local Time) from KBDG Reporting Station
Clear Clear  
Wind Chill: 54°   Ceiling: Unl
Heat Index: 54°   Visibility: 10mi
Dew Point: 23°   Wind: 5mph
Humidity: 30%   Direction: 190°S
Pressure: 30.37"   Gusts: NA
Location:  37.15°N, 109.86°W
Report Text: KBDG 262235Z AUTO 19004KT 10SM CLR 12/M05 A3037 RMK AO1 T01241048
Loading
Personal Weather Stations






























Interactive Weather Map New forecast layout! Learn more

10-Day Weather Forecast

Advertisements
Track Severe Weather on mobile